Photometre #46[NE_1.6] Lille AOT

File : 20220829_46.hum

29/08/2022,05:47:18,TEMP=17.2,BA=5.64,STAT.A=3.0,ExtBa=13.86
29/08/2022,05:50:51,TEMP=17.6,BA=5.64,STAT.A=3.0,ExtBa=13.75
29/08/2022,05:55:00,TEMP=17.9,BA=5.64,STAT.A=3.0,ExtBa=13.66
29/08/2022,05:59:55,TEMP=18.2,BA=5.64,STAT.A=3.0,ExtBa=13.61
29/08/2022,06:05:49,TEMP=18.6,BA=5.52,STAT.A=3.0,ExtBa=13.61
29/08/2022,06:13:03,TEMP=19.1,BA=5.64,STAT.A=3.0,ExtBa=13.62
29/08/2022,06:22:09,TEMP=19.6,BA=5.64,STAT.B=3.0,ExtBa=13.67
29/08/2022,06:31:01,TEMP=20.5,BA=5.48,STAT.A=3.0,ExtBa=12.84
29/08/2022,06:32:53,TEMP=20.8,BA=5.48,STAT.A=3.0,ExtBa=12.92
29/08/2022,06:36:45,TEMP=20.8,BA=5.48,STAT.A=3.0,ExtBa=13.04
29/08/2022,06:42:55,TEMP=21.0,BA=5.64,STAT.A=3.0,ExtBa=13.19
29/08/2022,06:49:57,TEMP=21.1,BA=5.64,STAT.C=3.0,ExtBa=13.30
29/08/2022,07:03:41,TEMP=21.8,BA=5.48,STAT.A=3.0,ExtBa=12.82
29/08/2022,07:07:34,TEMP=21.7,BA=5.48,STAT.A=3.0,ExtBa=13.00
29/08/2022,07:18:51,TEMP=22.0,BA=5.64,STAT.A=3.0,ExtBa=13.28
29/08/2022,07:32:33,TEMP=22.6,BA=5.64,STAT.A=3.0,ExtBa=13.38
29/08/2022,07:49:36,TEMP=22.9,BA=5.64,STAT.B=3.0,ExtBa=13.43
29/08/2022,08:25:23,TEMP=24.9,BA=5.56,STAT.B=3.0,ExtBa=13.43
29/08/2022,08:38:52,TEMP=25.5,BA=5.48,STAT.F,ExtBa=13.10
29/08/2022,08:53:51,TEMP=25.9,BA=5.48,STAT.D=3.0,ExtBa=12.87
29/08/2022,09:08:51,TEMP=26.4,BA=5.64,STAT.D=3.0,ExtBa=13.28
29/08/2022,09:23:51,TEMP=27.0,BA=5.64,STAT.D=3.0,ExtBa=13.36
29/08/2022,09:38:53,TEMP=27.9,BA=5.64,STAT.F,ExtBa=13.40